createdAt,value
2022-11-30T00:01:23.331Z,6.40
2022-11-30T00:03:54.790Z,6.40
2022-11-30T00:06:24.993Z,6.40
2022-11-30T00:08:58.988Z,6.30
2022-11-30T00:11:28.777Z,6.30
2022-11-30T00:13:56.142Z,6.40
2022-11-30T00:16:23.425Z,6.40
2022-11-30T00:18:50.799Z,6.40
2022-11-30T00:21:18.145Z,6.40
2022-11-30T00:23:46.600Z,6.40
2022-11-30T00:26:16.273Z,6.40
2022-11-30T00:28:45.324Z,6.30
2022-11-30T00:31:15.163Z,6.30
2022-11-30T00:33:42.446Z,6.30
2022-11-30T00:36:13.628Z,6.30
2022-11-30T00:38:40.759Z,6.30
2022-11-30T00:41:08.366Z,6.30
2022-11-30T00:43:36.349Z,6.20
2022-11-30T00:46:03.676Z,6.20
2022-11-30T00:48:30.605Z,6.30
2022-11-30T00:50:57.793Z,6.30
2022-11-30T00:53:24.674Z,6.30
2022-11-30T00:55:51.539Z,6.30
2022-11-30T00:58:18.607Z,6.30
2022-11-30T01:00:45.887Z,6.30
2022-11-30T01:03:13.317Z,6.30
2022-11-30T01:05:40.997Z,6.30
2022-11-30T01:08:09.126Z,6.40
2022-11-30T01:10:37.500Z,6.40
2022-11-30T01:13:04.831Z,6.40
2022-11-30T01:15:31.889Z,6.40
2022-11-30T01:18:02.974Z,6.40
2022-11-30T01:20:30.826Z,6.40
2022-11-30T01:22:57.766Z,6.40
2022-11-30T01:25:24.703Z,6.50
2022-11-30T01:27:51.644Z,6.50
2022-11-30T01:30:18.890Z,6.50
2022-11-30T01:32:45.890Z,6.50
2022-11-30T01:35:12.826Z,6.50
2022-11-30T01:37:39.678Z,6.50
2022-11-30T01:40:07.485Z,6.50
2022-11-30T01:42:34.481Z,6.60
2022-11-30T01:45:04.584Z,6.50
2022-11-30T01:47:46.325Z,6.50
2022-11-30T01:50:44.004Z,6.50
2022-11-30T01:53:12.525Z,6.50
2022-11-30T01:55:46.626Z,6.50
2022-11-30T01:58:25.734Z,6.40
2022-11-30T02:00:52.691Z,6.40
2022-11-30T02:03:46.259Z,6.30
2022-11-30T02:06:14.259Z,6.30
2022-11-30T02:08:41.284Z,6.30
2022-11-30T02:11:13.729Z,6.30
2022-11-30T02:14:03.254Z,6.30
2022-11-30T02:16:51.337Z,6.30
2022-11-30T02:19:46.374Z,6.30
2022-11-30T02:22:31.239Z,6.40
2022-11-30T02:25:13.646Z,6.40
2022-11-30T02:27:59.956Z,6.40
2022-11-30T02:30:27.204Z,6.40
2022-11-30T02:33:07.166Z,6.40
2022-11-30T02:35:40.474Z,6.40
2022-11-30T02:38:07.750Z,6.50
2022-11-30T02:40:35.054Z,6.50
2022-11-30T02:43:04.792Z,6.50
2022-11-30T02:46:04.617Z,6.40
2022-11-30T02:49:11.955Z,6.40
2022-11-30T02:51:41.154Z,6.40
2022-11-30T02:54:08.537Z,6.50
2022-11-30T02:56:35.460Z,6.50
2022-11-30T02:59:02.357Z,6.50
2022-11-30T03:01:29.243Z,6.50
2022-11-30T03:03:56.198Z,6.50
2022-11-30T03:06:23.138Z,6.50
2022-11-30T03:08:49.948Z,6.50
2022-11-30T03:11:16.819Z,6.50
2022-11-30T03:13:43.722Z,6.60
2022-11-30T03:16:12.986Z,6.50
2022-11-30T03:18:40.669Z,6.50
2022-11-30T03:21:09.439Z,6.50
2022-11-30T03:23:36.547Z,6.50
2022-11-30T03:26:05.207Z,6.50
2022-11-30T03:28:32.486Z,6.50
2022-11-30T03:30:59.366Z,6.50
2022-11-30T03:33:26.454Z,6.50
2022-11-30T03:36:07.470Z,6.50
2022-11-30T03:38:35.055Z,6.50
2022-11-30T03:41:06.844Z,6.50
2022-11-30T03:43:33.845Z,6.50
2022-11-30T03:46:01.150Z,6.50
2022-11-30T03:48:28.301Z,6.40
2022-11-30T03:50:55.218Z,6.30
2022-11-30T03:53:23.515Z,6.30
2022-11-30T03:55:59.690Z,6.40
2022-11-30T03:58:27.260Z,6.40
2022-11-30T04:01:10.186Z,6.40
2022-11-30T04:03:38.061Z,6.50
2022-11-30T04:06:07.669Z,6.50
2022-11-30T04:08:35.220Z,6.50
2022-11-30T04:11:03.495Z,6.60
2022-11-30T04:13:31.794Z,6.60
2022-11-30T04:15:59.329Z,6.60
2022-11-30T04:18:28.030Z,6.60
2022-11-30T04:20:56.691Z,6.60
2022-11-30T04:23:24.844Z,6.70
2022-11-30T04:25:52.446Z,6.60
2022-11-30T04:28:20.176Z,6.60
2022-11-30T04:30:47.678Z,6.60
2022-11-30T04:33:16.042Z,6.60
2022-11-30T04:35:50.132Z,6.60
2022-11-30T04:38:17.093Z,6.60
2022-11-30T04:40:44.503Z,6.60
2022-11-30T04:43:12.526Z,6.60
2022-11-30T04:45:40.068Z,6.60
2022-11-30T04:48:07.796Z,6.60
2022-11-30T04:50:34.853Z,6.60
2022-11-30T04:53:01.841Z,6.60
2022-11-30T04:55:29.022Z,6.60
2022-11-30T04:57:56.096Z,6.60
2022-11-30T05:00:23.381Z,6.60
2022-11-30T05:02:52.991Z,6.60
2022-11-30T05:05:20.595Z,6.70
2022-11-30T05:07:51.749Z,6.70
2022-11-30T05:10:18.801Z,6.70
2022-11-30T05:12:45.699Z,6.70
2022-11-30T05:15:12.821Z,6.70
2022-11-30T05:17:40.104Z,6.70
2022-11-30T05:20:07.521Z,6.70
2022-11-30T05:22:37.071Z,6.70
2022-11-30T05:25:04.545Z,6.70
2022-11-30T05:27:31.453Z,6.70
2022-11-30T05:29:58.316Z,6.70
2022-11-30T05:32:25.211Z,6.60
2022-11-30T05:34:54.295Z,6.60
2022-11-30T05:37:21.368Z,6.60
2022-11-30T05:39:48.306Z,6.70
2022-11-30T05:42:15.181Z,6.70
2022-11-30T05:44:42.213Z,6.70
2022-11-30T05:47:10.286Z,6.60
2022-11-30T05:49:37.246Z,6.60
2022-11-30T05:52:04.242Z,6.60
2022-11-30T05:54:31.266Z,6.60
2022-11-30T05:56:58.207Z,6.60
2022-11-30T05:59:25.083Z,6.60
2022-11-30T06:01:52.987Z,6.60
2022-11-30T06:04:20.256Z,6.60
2022-11-30T06:06:47.756Z,6.60
2022-11-30T06:09:14.652Z,6.60
2022-11-30T06:11:41.504Z,6.60
2022-11-30T06:14:08.465Z,6.60
2022-11-30T06:16:35.355Z,6.60
2022-11-30T06:19:02.320Z,6.50
2022-11-30T06:21:29.238Z,6.50
2022-11-30T06:23:56.950Z,6.50
2022-11-30T06:26:24.825Z,6.60
2022-11-30T06:28:51.686Z,6.60
2022-11-30T06:31:18.675Z,6.60
2022-11-30T06:33:45.622Z,6.60
2022-11-30T06:36:12.529Z,6.60
2022-11-30T06:38:39.473Z,6.50
2022-11-30T06:41:08.641Z,6.60
2022-11-30T06:43:39.565Z,6.60
2022-11-30T06:46:07.358Z,6.60
2022-11-30T06:48:35.262Z,6.60
2022-11-30T06:51:05.611Z,6.60
2022-11-30T06:53:32.669Z,6.60
2022-11-30T06:55:59.522Z,6.50
2022-11-30T06:58:26.454Z,6.60
2022-11-30T07:00:53.377Z,6.60
2022-11-30T07:03:20.423Z,6.60
2022-11-30T07:05:47.303Z,6.60
2022-11-30T07:08:16.405Z,6.60
2022-11-30T07:10:45.543Z,6.60
2022-11-30T07:13:14.850Z,6.60
2022-11-30T07:15:42.920Z,6.60
2022-11-30T07:18:11.336Z,6.60
2022-11-30T07:20:39.052Z,6.60
2022-11-30T07:23:24.782Z,6.60
2022-11-30T07:26:07.636Z,6.60
2022-11-30T07:28:42.438Z,6.60
2022-11-30T07:31:39.213Z,6.60
2022-11-30T07:34:09.156Z,6.60
2022-11-30T07:36:36.908Z,6.70
2022-11-30T07:39:04.608Z,6.70
2022-11-30T07:41:31.545Z,6.60
2022-11-30T07:43:58.512Z,6.70
2022-11-30T07:46:25.640Z,6.70
2022-11-30T07:48:52.586Z,6.70
2022-11-30T07:51:22.422Z,6.70
2022-11-30T07:53:49.856Z,6.70
2022-11-30T07:56:19.400Z,6.80
2022-11-30T07:58:47.173Z,6.90
2022-11-30T08:01:17.476Z,7.00
2022-11-30T08:03:44.615Z,7.00
2022-11-30T08:06:15.335Z,7.10
2022-11-30T08:08:46.450Z,7.20
2022-11-30T08:11:19.312Z,7.20
2022-11-30T08:13:46.390Z,7.20
2022-11-30T08:16:22.634Z,7.50
2022-11-30T08:18:49.819Z,8.00
2022-11-30T08:21:19.549Z,8.50
2022-11-30T08:23:52.500Z,8.80
2022-11-30T08:26:33.818Z,9.00
2022-11-30T08:29:01.734Z,9.60
2022-11-30T08:31:34.577Z,10.30
2022-11-30T08:34:05.251Z,11.20
2022-11-30T08:36:32.674Z,12.20
2022-11-30T08:39:01.111Z,13.30
2022-11-30T08:41:28.033Z,14.20
2022-11-30T08:43:55.105Z,15.10
2022-11-30T08:49:26.033Z,17.00
2022-11-30T08:54:46.162Z,18.60
2022-11-30T08:57:18.027Z,19.30
2022-11-30T08:59:45.183Z,19.60
2022-11-30T09:02:17.516Z,19.90
2022-11-30T09:04:45.389Z,20.30
2022-11-30T09:07:12.273Z,20.70
2022-11-30T09:09:39.328Z,21.20
2022-11-30T09:12:07.408Z,21.50
2022-11-30T09:14:34.442Z,21.90
2022-11-30T09:17:01.341Z,22.20
2022-11-30T09:19:28.261Z,22.50
2022-11-30T09:21:55.157Z,22.70
2022-11-30T09:24:22.340Z,23.00
2022-11-30T09:26:49.253Z,23.20
2022-11-30T09:29:16.238Z,23.40
2022-11-30T09:31:43.158Z,23.60
2022-11-30T09:34:12.498Z,23.80
2022-11-30T09:36:39.432Z,23.60
2022-11-30T09:39:06.709Z,23.20
2022-11-30T09:42:00.831Z,22.90
2022-11-30T09:44:58.694Z,22.90
2022-11-30T09:47:44.521Z,22.70
2022-11-30T09:50:20.230Z,22.80
2022-11-30T09:52:52.258Z,22.90
2022-11-30T09:55:34.808Z,22.20
2022-11-30T09:58:06.567Z,21.50
2022-11-30T10:00:35.113Z,20.70
2022-11-30T10:03:06.334Z,20.50
2022-11-30T10:05:54.458Z,20.50
2022-11-30T10:08:33.342Z,20.60
2022-11-30T10:11:32.010Z,21.00
2022-11-30T10:14:24.666Z,21.20
2022-11-30T10:16:59.685Z,21.70
2022-11-30T10:19:32.531Z,22.20
2022-11-30T10:22:08.537Z,22.70
2022-11-30T10:25:12.561Z,23.20
2022-11-30T10:27:42.431Z,23.40
2022-11-30T10:30:34.536Z,23.80
2022-11-30T10:33:12.661Z,24.00
2022-11-30T10:35:52.558Z,24.30
2022-11-30T10:38:30.667Z,24.60
2022-11-30T10:41:18.951Z,24.70
2022-11-30T10:43:53.017Z,24.20
2022-11-30T10:46:30.232Z,22.90
2022-11-30T10:49:12.791Z,21.40
2022-11-30T10:51:42.720Z,20.00
2022-11-30T10:54:19.168Z,18.90
2022-11-30T10:56:46.756Z,18.20
2022-11-30T10:59:26.315Z,17.60
2022-11-30T11:01:53.647Z,17.10
2022-11-30T11:04:22.888Z,16.90
2022-11-30T11:07:10.474Z,16.60
2022-11-30T11:09:41.256Z,16.40
2022-11-30T11:12:27.647Z,16.20
2022-11-30T11:15:42.712Z,16.20
2022-11-30T11:18:21.405Z,16.40
2022-11-30T11:20:50.112Z,16.70
2022-11-30T11:23:27.560Z,16.50
2022-11-30T11:25:54.707Z,16.40
2022-11-30T11:28:24.463Z,16.20
2022-11-30T11:30:56.043Z,16.10
2022-11-30T11:33:28.409Z,16.00
2022-11-30T11:36:16.031Z,15.90
2022-11-30T11:38:48.406Z,16.10
2022-11-30T11:41:29.429Z,16.40
2022-11-30T11:44:02.358Z,16.50
2022-11-30T11:46:32.024Z,16.40
2022-11-30T11:49:21.342Z,16.20
2022-11-30T11:52:04.669Z,16.00
2022-11-30T11:54:42.954Z,15.90
2022-11-30T11:57:13.308Z,15.70
2022-11-30T11:59:57.182Z,15.50
2022-11-30T12:03:01.929Z,15.30
2022-11-30T12:05:37.331Z,15.10
2022-11-30T12:08:07.616Z,15.00
2022-11-30T12:10:52.899Z,14.80
2022-11-30T12:13:23.822Z,14.80
2022-11-30T12:15:53.748Z,14.70
2022-11-30T12:18:24.973Z,14.70
2022-11-30T12:20:59.738Z,14.60
2022-11-30T12:23:38.603Z,14.50
2022-11-30T12:26:16.251Z,14.50
2022-11-30T12:28:43.112Z,14.40
2022-11-30T12:31:18.468Z,14.30
2022-11-30T12:34:04.036Z,14.20
2022-11-30T12:36:55.265Z,14.10
2022-11-30T12:39:31.453Z,14.00
2022-11-30T12:42:29.889Z,13.90
2022-11-30T12:44:59.875Z,13.80
2022-11-30T12:47:26.803Z,13.70
2022-11-30T12:50:11.827Z,13.60
2022-11-30T12:52:59.948Z,13.50
2022-11-30T12:55:31.791Z,13.40
2022-11-30T12:58:30.468Z,13.40
2022-11-30T13:01:16.240Z,13.30
2022-11-30T13:04:11.987Z,13.30
2022-11-30T13:06:53.979Z,13.10
2022-11-30T13:09:37.434Z,12.90
2022-11-30T13:12:12.094Z,12.70
2022-11-30T13:14:41.714Z,12.50
2022-11-30T13:17:19.841Z,12.50
2022-11-30T13:20:08.556Z,12.50
2022-11-30T13:22:47.910Z,12.60
2022-11-30T13:25:59.385Z,12.70
2022-11-30T13:28:33.284Z,12.70
2022-11-30T13:31:08.174Z,12.70
2022-11-30T13:33:35.202Z,12.70
2022-11-30T13:36:07.081Z,12.70
2022-11-30T13:38:37.471Z,12.70
2022-11-30T13:41:08.502Z,12.60
2022-11-30T13:43:43.934Z,12.60
2022-11-30T13:46:19.072Z,12.50
2022-11-30T13:48:46.889Z,12.50
2022-11-30T13:51:33.414Z,12.40
2022-11-30T13:54:39.069Z,12.40
2022-11-30T13:57:29.223Z,12.30
2022-11-30T14:00:23.885Z,12.20
2022-11-30T14:02:54.712Z,12.20
2022-11-30T14:06:01.582Z,12.10
2022-11-30T14:08:37.725Z,12.00
2022-11-30T14:11:36.358Z,12.00
2022-11-30T14:14:45.407Z,11.90
2022-11-30T14:17:26.437Z,11.80
2022-11-30T14:20:00.241Z,11.80
2022-11-30T14:22:29.798Z,11.70
2022-11-30T14:24:57.278Z,11.70
2022-11-30T14:27:27.278Z,11.60
2022-11-30T14:29:59.490Z,11.60
2022-11-30T14:32:30.443Z,11.50
2022-11-30T14:35:16.166Z,11.40
2022-11-30T14:37:46.123Z,11.40
2022-11-30T14:40:20.097Z,11.30
2022-11-30T14:42:55.986Z,11.30
2022-11-30T14:45:32.221Z,11.30
2022-11-30T14:48:06.715Z,11.30
2022-11-30T14:50:34.141Z,11.30
2022-11-30T14:53:22.307Z,11.30
2022-11-30T14:56:02.379Z,11.30
2022-11-30T14:58:46.218Z,11.30
2022-11-30T15:01:32.662Z,11.10
2022-11-30T15:04:27.815Z,11.10
2022-11-30T15:06:58.724Z,11.00
2022-11-30T15:09:29.663Z,11.00
2022-11-30T15:11:57.746Z,11.00
2022-11-30T15:14:24.850Z,10.90
2022-11-30T15:16:54.032Z,10.90
2022-11-30T15:19:32.946Z,11.00
2022-11-30T15:22:00.293Z,10.90
2022-11-30T15:24:29.580Z,10.90
2022-11-30T15:27:05.585Z,10.90
2022-11-30T15:29:46.130Z,10.90
2022-11-30T15:32:20.226Z,10.80
2022-11-30T15:34:56.281Z,10.80
2022-11-30T15:37:37.999Z,10.80
2022-11-30T15:40:07.281Z,10.80
2022-11-30T15:42:43.711Z,10.80
2022-11-30T15:45:29.395Z,10.80
2022-11-30T15:47:58.904Z,10.80
2022-11-30T15:50:28.573Z,10.80
2022-11-30T15:53:01.805Z,10.70
2022-11-30T15:55:45.152Z,10.70
2022-11-30T15:58:30.967Z,10.70
2022-11-30T16:01:12.262Z,10.70
2022-11-30T16:04:02.585Z,10.70
2022-11-30T16:06:36.898Z,10.60
2022-11-30T16:09:26.776Z,10.60
2022-11-30T16:11:57.225Z,10.60
2022-11-30T16:14:24.207Z,10.60
2022-11-30T16:16:53.762Z,10.60
2022-11-30T16:19:21.296Z,10.50
2022-11-30T16:21:50.017Z,10.50
2022-11-30T16:24:16.927Z,10.50
2022-11-30T16:26:52.234Z,10.50
2022-11-30T16:29:19.965Z,10.50
2022-11-30T16:31:47.275Z,10.50
2022-11-30T16:34:14.242Z,10.50
2022-11-30T16:36:41.132Z,10.40
2022-11-30T16:39:12.432Z,10.40
2022-11-30T16:41:39.367Z,10.40
2022-11-30T16:44:12.840Z,10.40
2022-11-30T16:46:39.664Z,10.40
2022-11-30T16:49:06.562Z,10.40
2022-11-30T16:51:36.866Z,10.40
2022-11-30T16:54:04.547Z,10.40
2022-11-30T16:56:31.584Z,10.40
2022-11-30T16:58:58.410Z,10.40
2022-11-30T17:01:33.174Z,10.40
2022-11-30T17:04:11.816Z,10.40
2022-11-30T17:06:38.948Z,10.40
2022-11-30T17:09:06.044Z,10.40
2022-11-30T17:11:36.372Z,10.40
2022-11-30T17:14:03.579Z,10.40
2022-11-30T17:16:30.579Z,10.30
2022-11-30T17:18:57.602Z,10.40
2022-11-30T17:21:29.938Z,10.40
2022-11-30T17:23:57.182Z,10.40
2022-11-30T17:26:24.243Z,10.30
2022-11-30T17:28:51.155Z,10.40
2022-11-30T17:31:18.846Z,10.30
2022-11-30T17:33:48.418Z,10.30
2022-11-30T17:36:16.819Z,10.30
2022-11-30T17:38:44.327Z,10.30
2022-11-30T17:41:19.900Z,10.30
2022-11-30T17:43:47.803Z,10.30
2022-11-30T17:46:17.573Z,10.20
2022-11-30T17:48:44.652Z,10.20
2022-11-30T17:51:12.607Z,10.10
2022-11-30T17:53:41.922Z,10.00
2022-11-30T17:56:16.951Z,9.90
2022-11-30T17:58:45.244Z,9.90
2022-11-30T18:01:19.507Z,9.80
2022-11-30T18:03:47.065Z,9.70
2022-11-30T18:06:14.857Z,9.60
2022-11-30T18:08:41.782Z,9.50
2022-11-30T18:11:14.224Z,9.50
2022-11-30T18:13:41.708Z,9.40
2022-11-30T18:16:10.097Z,9.40
2022-11-30T18:18:37.049Z,9.30
2022-11-30T18:21:08.704Z,9.30
2022-11-30T18:23:36.835Z,9.20
2022-11-30T18:26:06.097Z,9.20
2022-11-30T18:28:33.840Z,9.10
2022-11-30T18:31:00.898Z,9.00
2022-11-30T18:33:27.978Z,9.00
2022-11-30T18:35:59.395Z,8.90
2022-11-30T18:38:27.082Z,8.80
2022-11-30T18:40:54.953Z,8.70
2022-11-30T18:43:21.890Z,8.70
2022-11-30T18:45:49.076Z,8.60
2022-11-30T18:48:16.020Z,8.50
2022-11-30T18:50:43.605Z,8.40
2022-11-30T18:53:13.843Z,8.30
2022-11-30T18:55:45.036Z,8.30
2022-11-30T18:58:11.871Z,8.20
2022-11-30T19:00:38.779Z,8.20
2022-11-30T19:03:05.800Z,8.10
2022-11-30T19:05:32.889Z,8.10
2022-11-30T19:08:01.163Z,8.00
2022-11-30T19:10:28.078Z,8.00
2022-11-30T19:12:54.963Z,8.00
2022-11-30T19:15:21.979Z,7.90
2022-11-30T19:17:48.970Z,8.00
2022-11-30T19:20:15.918Z,7.90
2022-11-30T19:22:42.868Z,7.90
2022-11-30T19:25:09.794Z,7.80
2022-11-30T19:27:36.635Z,7.80
2022-11-30T19:30:09.415Z,7.80
2022-11-30T19:32:36.446Z,7.80
2022-11-30T19:35:03.569Z,7.90
2022-11-30T19:37:30.426Z,7.90
2022-11-30T19:39:57.291Z,8.00
2022-11-30T19:42:24.252Z,8.00
2022-11-30T19:44:51.118Z,8.10
2022-11-30T19:47:17.997Z,8.10
2022-11-30T19:49:45.782Z,8.20
2022-11-30T19:52:12.695Z,8.20
2022-11-30T19:54:39.659Z,8.20
2022-11-30T19:57:06.568Z,8.30
2022-11-30T19:59:33.495Z,8.30
2022-11-30T20:02:00.429Z,8.30
2022-11-30T20:04:27.327Z,8.30
2022-11-30T20:06:54.244Z,8.30
2022-11-30T20:09:21.237Z,8.30
2022-11-30T20:11:48.149Z,8.30
2022-11-30T20:14:16.943Z,8.30
2022-11-30T20:16:43.845Z,8.30
2022-11-30T20:19:11.841Z,8.30
2022-11-30T20:21:38.746Z,8.30
2022-11-30T20:24:07.663Z,8.30
2022-11-30T20:26:37.435Z,8.30
2022-11-30T20:29:06.439Z,8.30
2022-11-30T20:31:35.901Z,8.30
2022-11-30T20:34:03.329Z,8.30
2022-11-30T20:36:30.396Z,8.40
2022-11-30T20:38:59.589Z,8.40
2022-11-30T20:41:27.237Z,8.40
2022-11-30T20:43:54.924Z,8.40
2022-11-30T20:46:27.908Z,8.50
2022-11-30T20:48:55.686Z,8.50
2022-11-30T20:51:33.542Z,8.50
2022-11-30T20:54:03.993Z,8.50
2022-11-30T20:56:31.273Z,8.60
2022-11-30T20:59:02.370Z,8.60
2022-11-30T21:01:29.682Z,8.60
2022-11-30T21:03:56.749Z,8.60
2022-11-30T21:06:23.634Z,8.50
2022-11-30T21:08:50.541Z,8.50
2022-11-30T21:11:20.221Z,8.50
2022-11-30T21:13:49.491Z,8.50
2022-11-30T21:16:25.606Z,8.60
2022-11-30T21:18:54.865Z,8.50
2022-11-30T21:21:23.822Z,8.50
2022-11-30T21:23:51.422Z,8.50
2022-11-30T21:26:24.186Z,8.40
2022-11-30T21:28:55.992Z,8.30
2022-11-30T21:31:23.653Z,8.30
2022-11-30T21:33:53.540Z,8.30
2022-11-30T21:36:22.482Z,8.20
2022-11-30T21:39:04.410Z,8.20
2022-11-30T21:41:33.305Z,8.10
2022-11-30T21:44:00.191Z,8.10
2022-11-30T21:46:27.141Z,8.10
2022-11-30T21:48:54.058Z,8.10
2022-11-30T21:51:23.808Z,8.10
2022-11-30T21:53:56.798Z,8.10
2022-11-30T21:56:27.126Z,8.10
2022-11-30T21:58:54.392Z,8.00
2022-11-30T22:01:42.346Z,8.00
2022-11-30T22:04:10.757Z,8.00
2022-11-30T22:06:39.025Z,8.00
2022-11-30T22:09:10.638Z,8.00
2022-11-30T22:11:39.858Z,8.00
2022-11-30T22:14:10.442Z,7.90
2022-11-30T22:16:37.397Z,7.90
2022-11-30T22:19:06.112Z,7.90
2022-11-30T22:21:33.861Z,7.90
2022-11-30T22:24:03.630Z,7.90
2022-11-30T22:26:32.502Z,7.80
2022-11-30T22:29:04.423Z,7.80
2022-11-30T22:31:36.855Z,7.80
2022-11-30T22:34:04.168Z,7.80
2022-11-30T22:36:33.163Z,7.80
2022-11-30T22:39:06.638Z,7.70
2022-11-30T22:41:33.711Z,7.60
2022-11-30T22:44:01.072Z,7.60
2022-11-30T22:46:31.952Z,7.50
2022-11-30T22:49:00.426Z,7.50
2022-11-30T22:51:29.767Z,7.40
2022-11-30T22:53:57.751Z,7.30
2022-11-30T22:56:27.437Z,7.20
2022-11-30T22:58:56.338Z,7.10
2022-11-30T23:01:25.631Z,6.90
2022-11-30T23:03:54.238Z,6.80
2022-11-30T23:06:22.686Z,6.70
2022-11-30T23:08:51.423Z,6.60
2022-11-30T23:11:20.987Z,6.50
2022-11-30T23:13:48.307Z,6.50
2022-11-30T23:16:16.380Z,6.40
2022-11-30T23:18:46.233Z,6.40
2022-11-30T23:21:16.410Z,6.30
2022-11-30T23:23:44.598Z,6.30
2022-11-30T23:26:25.787Z,6.30
2022-11-30T23:28:54.297Z,6.40
2022-11-30T23:31:34.266Z,6.30
2022-11-30T23:34:05.257Z,6.30
2022-11-30T23:36:33.187Z,6.30
2022-11-30T23:39:02.995Z,6.30
2022-11-30T23:41:30.042Z,6.30
2022-11-30T23:43:57.243Z,6.30
2022-11-30T23:46:24.536Z,6.30
2022-11-30T23:48:51.646Z,6.30
2022-11-30T23:51:18.977Z,6.30
2022-11-30T23:53:45.887Z,6.40
2022-11-30T23:56:14.989Z,6.40
2022-11-30T23:58:42.038Z,6.40
